createdAt,value
2018-08-20T00:02:00.679Z,15.93
2018-08-20T00:04:35.097Z,15.97
2018-08-20T00:07:04.100Z,16.70
2018-08-20T00:09:38.596Z,14.83
2018-08-20T00:12:08.679Z,16.97
2018-08-20T00:14:37.738Z,15.63
2018-08-20T00:17:06.681Z,17.50
2018-08-20T00:19:35.571Z,17.17
2018-08-20T00:22:04.507Z,18.30
2018-08-20T00:24:33.341Z,17.07
2018-08-20T00:27:03.331Z,17.27
2018-08-20T00:29:32.817Z,15.87
2018-08-20T00:32:01.600Z,20.33
2018-08-20T00:34:30.433Z,15.40
2018-08-20T00:36:59.332Z,16.60
2018-08-20T00:39:28.104Z,17.70
2018-08-20T00:41:57.009Z,16.93
2018-08-20T00:44:25.937Z,17.20
2018-08-20T00:46:56.028Z,18.00
2018-08-20T00:49:24.881Z,17.70
2018-08-20T00:51:54.789Z,18.00
2018-08-20T00:54:23.661Z,17.70
2018-08-20T00:56:52.504Z,17.43
2018-08-20T00:59:21.343Z,16.43
2018-08-20T01:01:50.279Z,18.57
2018-08-20T01:04:19.140Z,16.37
2018-08-20T01:06:47.989Z,15.10
2018-08-20T01:09:16.912Z,16.90
2018-08-20T01:11:45.722Z,18.17
2018-08-20T01:14:14.721Z,15.70
2018-08-20T01:16:43.610Z,16.40
2018-08-20T01:19:12.402Z,18.93
2018-08-20T01:21:41.349Z,16.50
2018-08-20T01:24:10.153Z,18.17
2018-08-20T01:26:38.948Z,16.40
2018-08-20T01:29:08.031Z,16.80
2018-08-20T01:31:36.852Z,16.20
2018-08-20T01:34:12.025Z,17.37
2018-08-20T01:36:41.067Z,15.43
2018-08-20T01:39:09.956Z,16.50
2018-08-20T01:41:38.826Z,17.07
2018-08-20T01:44:07.876Z,16.67
2018-08-20T01:46:36.787Z,15.93
2018-08-20T01:49:05.693Z,16.63
2018-08-20T01:51:34.557Z,17.90
2018-08-20T01:54:03.414Z,17.93
2018-08-20T01:56:32.305Z,17.53
2018-08-20T01:59:01.129Z,16.53
2018-08-20T02:01:29.940Z,17.87
2018-08-20T02:03:58.896Z,16.53
2018-08-20T02:06:27.699Z,18.07
2018-08-20T02:08:56.505Z,16.80
2018-08-20T02:11:25.381Z,19.27
2018-08-20T02:13:54.376Z,17.30
2018-08-20T02:16:23.177Z,18.30
2018-08-20T02:18:52.066Z,17.47
2018-08-20T02:21:20.969Z,18.03
2018-08-20T02:23:49.806Z,18.77
2018-08-20T02:26:18.607Z,17.43
2018-08-20T02:28:47.456Z,18.17
2018-08-20T02:31:16.285Z,19.67
2018-08-20T02:33:46.102Z,18.80
2018-08-20T02:36:14.993Z,18.67
2018-08-20T02:38:43.859Z,18.20
2018-08-20T02:41:12.718Z,18.00
2018-08-20T02:43:41.626Z,17.83
2018-08-20T02:46:10.638Z,18.90
2018-08-20T02:48:39.560Z,19.20
2018-08-20T02:51:08.491Z,19.67
2018-08-20T02:53:37.338Z,18.13
2018-08-20T02:56:06.234Z,19.33
2018-08-20T02:58:35.151Z,18.70
2018-08-20T03:01:03.965Z,18.40
2018-08-20T03:03:32.952Z,18.57
2018-08-20T03:06:01.869Z,18.27
2018-08-20T03:08:30.710Z,18.37
2018-08-20T03:10:59.535Z,18.70
2018-08-20T03:13:28.436Z,19.27
2018-08-20T03:15:57.308Z,17.43
2018-08-20T03:18:26.192Z,18.77
2018-08-20T03:20:55.133Z,18.40
2018-08-20T03:23:24.005Z,18.40
2018-08-20T03:25:52.801Z,18.10
2018-08-20T03:28:22.060Z,19.70
2018-08-20T03:30:50.955Z,18.87
2018-08-20T03:33:19.861Z,17.70
2018-08-20T03:35:50.030Z,21.10
2018-08-20T03:38:18.899Z,15.50
2018-08-20T03:40:48.697Z,18.67
2018-08-20T03:43:17.620Z,18.20
2018-08-20T03:45:46.440Z,17.93
2018-08-20T03:48:15.274Z,20.83
2018-08-20T03:50:44.148Z,20.20
2018-08-20T03:53:13.174Z,20.47
2018-08-20T03:55:41.993Z,17.40
2018-08-20T03:58:10.828Z,16.47
2018-08-20T04:00:39.845Z,17.73
2018-08-20T04:03:08.864Z,17.40
2018-08-20T04:05:37.709Z,19.13
2018-08-20T04:08:08.005Z,16.97
2018-08-20T04:10:36.828Z,20.03
2018-08-20T04:13:05.697Z,15.63
2018-08-20T04:15:34.567Z,18.37
2018-08-20T04:18:03.481Z,15.87
2018-08-20T04:20:32.294Z,16.57
2018-08-20T04:23:01.189Z,15.10
2018-08-20T04:25:30.386Z,14.97
2018-08-20T04:27:59.277Z,15.37
2018-08-20T04:30:28.121Z,18.87
2018-08-20T04:32:56.980Z,15.13
2018-08-20T04:35:25.972Z,14.60
2018-08-20T04:37:55.418Z,14.17
2018-08-20T04:40:24.329Z,11.93
2018-08-20T04:42:53.209Z,13.47
2018-08-20T04:45:22.084Z,13.30
2018-08-20T04:47:50.860Z,15.80
2018-08-20T04:50:19.873Z,13.70
2018-08-20T04:52:48.570Z,11.60
2018-08-20T04:55:17.422Z,12.53
2018-08-20T04:57:46.275Z,10.20
2018-08-20T05:00:15.139Z,10.87
2018-08-20T05:02:44.012Z,9.93
2018-08-20T05:05:12.829Z,10.37
2018-08-20T05:07:41.642Z,12.43
2018-08-20T05:10:10.667Z,11.57
2018-08-20T05:12:39.407Z,8.20
2018-08-20T05:15:08.729Z,7.30
2018-08-20T05:17:38.841Z,13.50
2018-08-20T05:20:08.526Z,8.67
2018-08-20T05:22:37.317Z,7.40
2018-08-20T05:25:06.365Z,8.63
2018-08-20T05:27:35.278Z,9.57
2018-08-20T05:30:04.220Z,10.33
2018-08-20T05:32:33.016Z,11.33
2018-08-20T05:35:01.844Z,10.50
2018-08-20T05:37:30.696Z,9.27
2018-08-20T05:39:59.542Z,10.37
2018-08-20T05:42:29.487Z,13.17
2018-08-20T05:44:58.329Z,10.50
2018-08-20T05:47:28.134Z,8.10
2018-08-20T05:49:58.731Z,8.13
2018-08-20T05:52:28.496Z,8.03
2018-08-20T05:54:59.655Z,8.10
2018-08-20T05:57:30.319Z,6.33
2018-08-20T06:00:01.467Z,7.30
2018-08-20T06:02:37.420Z,9.07
2018-08-20T06:05:09.088Z,10.27
2018-08-20T06:07:41.692Z,12.00
2018-08-20T06:10:11.571Z,7.80
2018-08-20T06:12:43.874Z,12.73
2018-08-20T06:15:15.831Z,6.97
2018-08-20T06:17:48.835Z,10.23
2018-08-20T06:20:20.163Z,9.30
2018-08-20T06:22:53.073Z,10.17
2018-08-20T06:25:22.413Z,4.83
2018-08-20T06:27:53.570Z,13.33
2018-08-20T06:30:26.402Z,14.60
2018-08-20T06:32:57.273Z,7.67
2018-08-20T06:35:30.324Z,7.03
2018-08-20T06:38:01.925Z,6.90
2018-08-20T06:40:35.855Z,7.07
2018-08-20T06:43:08.935Z,6.97
2018-08-20T06:45:40.197Z,10.00
2018-08-20T06:48:11.835Z,8.20
2018-08-20T06:50:41.930Z,10.70
2018-08-20T06:53:12.443Z,8.83
2018-08-20T06:55:43.804Z,9.77
2018-08-20T06:58:13.050Z,7.43
2018-08-20T07:00:42.321Z,7.07
2018-08-20T07:03:14.503Z,10.83
2018-08-20T07:05:47.556Z,9.07
2018-08-20T07:08:17.593Z,8.40
2018-08-20T07:10:50.864Z,10.50
2018-08-20T07:13:36.379Z,6.13
2018-08-20T07:16:13.397Z,8.17
2018-08-20T07:18:43.247Z,5.57
2018-08-20T07:21:13.831Z,9.53
2018-08-20T07:23:46.360Z,6.97
2018-08-20T07:26:16.936Z,10.57
2018-08-20T07:28:49.960Z,10.87
2018-08-20T07:31:20.795Z,7.73
2018-08-20T07:33:54.838Z,9.73
2018-08-20T07:36:26.713Z,7.13
2018-08-20T07:38:58.220Z,9.37
2018-08-20T07:41:28.553Z,10.00
2018-08-20T07:44:00.724Z,10.30
2018-08-20T07:46:31.042Z,10.13
2018-08-20T07:49:07.334Z,10.20
2018-08-20T07:51:38.609Z,8.17
2018-08-20T07:54:08.063Z,7.90
2018-08-20T07:56:38.953Z,5.17
2018-08-20T07:59:10.417Z,11.00
2018-08-20T08:01:43.086Z,10.67
2018-08-20T08:04:14.740Z,9.03
2018-08-20T08:06:48.300Z,6.50
2018-08-20T08:09:18.652Z,9.70
2018-08-20T08:11:54.843Z,9.60
2018-08-20T08:14:24.153Z,7.67
2018-08-20T08:16:57.200Z,7.00
2018-08-20T08:19:32.873Z,7.73
2018-08-20T08:22:02.344Z,11.10
2018-08-20T08:24:33.078Z,12.50
2018-08-20T08:27:03.656Z,13.23
2018-08-20T08:29:34.694Z,6.50
2018-08-20T08:32:05.710Z,13.07
2018-08-20T08:34:35.771Z,9.43
2018-08-20T08:37:06.667Z,13.97
2018-08-20T08:39:39.730Z,13.97
2018-08-20T08:42:16.141Z,7.77
2018-08-20T08:44:47.490Z,10.47
2018-08-20T08:47:24.301Z,9.30
2018-08-20T08:50:03.161Z,11.83
2018-08-20T08:52:38.579Z,9.30
2018-08-20T08:55:09.840Z,10.97
2018-08-20T08:57:41.729Z,9.53
2018-08-20T09:00:20.026Z,10.90
2018-08-20T09:02:51.414Z,10.27
2018-08-20T09:05:25.351Z,10.93
2018-08-20T09:07:55.356Z,9.10
2018-08-20T09:10:29.766Z,15.73
2018-08-20T09:12:59.617Z,8.23
2018-08-20T09:15:31.464Z,7.60
2018-08-20T09:18:02.570Z,11.03
2018-08-20T09:20:33.417Z,9.60
2018-08-20T09:23:05.596Z,10.87
2018-08-20T09:25:37.006Z,12.87
2018-08-20T09:28:08.373Z,8.67
2018-08-20T09:30:42.030Z,8.33
2018-08-20T09:33:13.193Z,15.73
2018-08-20T09:35:43.576Z,12.97
2018-08-20T09:38:16.107Z,9.47
2018-08-20T09:40:48.475Z,7.93
2018-08-20T09:43:20.627Z,15.47
2018-08-20T09:45:52.565Z,8.57
2018-08-20T09:48:24.808Z,7.97
2018-08-20T09:50:55.917Z,14.50
2018-08-20T09:53:29.140Z,12.03
2018-08-20T09:55:58.581Z,10.40
2018-08-20T09:58:31.485Z,8.57
2018-08-20T10:01:04.780Z,11.83
2018-08-20T10:03:34.819Z,8.40
2018-08-20T10:08:45.161Z,12.83
2018-08-20T10:11:18.157Z,11.33
2018-08-20T10:13:50.304Z,9.13
2018-08-20T10:16:20.744Z,15.37
2018-08-20T10:18:54.992Z,12.73
2018-08-20T10:21:24.388Z,11.90
2018-08-20T10:23:54.839Z,11.67
2018-08-20T10:26:29.100Z,10.67
2018-08-20T10:28:59.974Z,11.43
2018-08-20T10:31:32.118Z,12.20
2018-08-20T10:34:02.549Z,12.70
2018-08-20T10:36:32.698Z,14.53
2018-08-20T10:39:07.234Z,10.80
2018-08-20T10:41:40.843Z,10.17
2018-08-20T10:44:13.372Z,11.27
2018-08-20T10:46:44.124Z,13.73
2018-08-20T10:49:17.301Z,14.83
2018-08-20T10:51:46.733Z,9.87
2018-08-20T10:54:20.788Z,11.00
2018-08-20T10:56:51.840Z,10.73
2018-08-20T10:59:26.392Z,13.10
2018-08-20T11:01:56.750Z,12.33
2018-08-20T11:04:28.289Z,12.67
2018-08-20T11:06:58.796Z,8.67
2018-08-20T11:09:31.302Z,13.30
2018-08-20T11:12:01.687Z,14.73
2018-08-20T11:14:33.185Z,17.77
2018-08-20T11:17:03.961Z,14.80
2018-08-20T11:19:33.766Z,11.43
2018-08-20T11:22:06.315Z,14.80
2018-08-20T11:24:38.107Z,14.50
2018-08-20T11:27:11.063Z,8.87
2018-08-20T11:29:46.424Z,10.10
2018-08-20T11:32:19.579Z,10.93
2018-08-20T11:34:52.243Z,9.30
2018-08-20T11:37:23.245Z,12.20
2018-08-20T11:39:54.195Z,11.63
2018-08-20T11:42:25.622Z,12.00
2018-08-20T11:44:59.112Z,15.13
2018-08-20T11:47:31.145Z,14.63
2018-08-20T11:50:02.715Z,12.13
2018-08-20T11:52:37.367Z,14.07
2018-08-20T11:55:08.937Z,12.67
2018-08-20T11:57:40.383Z,10.47
2018-08-20T12:00:12.855Z,10.03
2018-08-20T12:02:42.803Z,10.33
2018-08-20T12:05:19.192Z,12.17
2018-08-20T12:07:50.810Z,14.13
2018-08-20T12:10:28.134Z,9.60
2018-08-20T12:12:58.944Z,17.20
2018-08-20T12:15:34.674Z,9.77
2018-08-20T12:18:07.588Z,16.20
2018-08-20T12:20:37.411Z,9.40
2018-08-20T12:23:08.328Z,11.97
2018-08-20T12:25:41.716Z,12.40
2018-08-20T12:28:12.959Z,11.23
2018-08-20T12:30:44.963Z,13.07
2018-08-20T12:33:14.658Z,10.80
2018-08-20T12:35:50.040Z,10.47
2018-08-20T12:38:24.018Z,12.07
2018-08-20T12:40:55.842Z,12.80
2018-08-20T12:43:27.709Z,14.57
2018-08-20T12:45:59.856Z,10.70
2018-08-20T12:48:29.871Z,12.37
2018-08-20T12:51:04.439Z,8.63
2018-08-20T12:53:34.978Z,9.23
2018-08-20T12:56:07.786Z,13.25
2018-08-20T12:58:48.656Z,9.40
2018-08-20T13:01:20.462Z,13.60
2018-08-20T13:03:51.005Z,11.93
2018-08-20T13:06:21.013Z,9.05
2018-08-20T13:08:57.246Z,9.68
2018-08-20T13:11:28.189Z,9.93
2018-08-20T13:14:00.801Z,14.40
2018-08-20T13:16:31.271Z,16.77
2018-08-20T13:19:04.779Z,8.10
2018-08-20T13:21:35.555Z,11.22
2018-08-20T13:24:06.335Z,15.20
2018-08-20T13:26:35.907Z,9.78
2018-08-20T13:29:07.863Z,8.55
2018-08-20T13:31:40.656Z,7.12
2018-08-20T13:34:17.039Z,9.55
2018-08-20T13:36:49.099Z,9.03
2018-08-20T13:39:20.527Z,12.55
2018-08-20T13:41:50.794Z,11.20
2018-08-20T13:44:21.301Z,11.10
2018-08-20T13:46:56.945Z,11.30
2018-08-20T13:49:29.531Z,11.35
2018-08-20T13:51:58.998Z,11.43
2018-08-20T13:54:29.825Z,12.50
2018-08-20T13:57:03.081Z,10.53
2018-08-20T13:59:35.048Z,12.43
2018-08-20T14:02:07.505Z,14.80
2018-08-20T14:04:37.925Z,8.00
2018-08-20T14:07:10.747Z,8.88
2018-08-20T14:09:39.793Z,10.43
2018-08-20T14:12:08.709Z,13.83
2018-08-20T14:14:38.598Z,12.00
2018-08-20T14:17:07.522Z,10.05
2018-08-20T14:19:38.734Z,11.70
2018-08-20T14:22:07.682Z,14.50
2018-08-20T14:24:36.561Z,10.30
2018-08-20T14:27:05.618Z,14.95
2018-08-20T14:29:36.511Z,11.53
2018-08-20T14:32:06.214Z,9.08
2018-08-20T14:34:35.141Z,10.58
2018-08-20T14:37:05.419Z,11.18
2018-08-20T14:39:35.898Z,11.00
2018-08-20T14:42:07.040Z,11.12
2018-08-20T14:44:37.618Z,8.95
2018-08-20T14:47:07.213Z,9.38
2018-08-20T14:49:39.607Z,10.08
2018-08-20T14:52:11.691Z,9.53
2018-08-20T14:54:45.884Z,7.72
2018-08-20T14:57:15.326Z,13.20
2018-08-20T14:59:46.655Z,8.03
2018-08-20T15:02:16.863Z,7.17
2018-08-20T15:04:48.213Z,12.37
2018-08-20T15:07:19.704Z,8.30
2018-08-20T15:09:50.188Z,10.48
2018-08-20T15:12:21.736Z,11.00
2018-08-20T15:14:53.903Z,10.25
2018-08-20T15:17:25.025Z,6.42
2018-08-20T15:19:55.151Z,9.05
2018-08-20T15:22:27.480Z,8.53
2018-08-20T15:24:56.850Z,10.15
2018-08-20T15:27:29.730Z,6.58
2018-08-20T15:30:02.716Z,10.90
2018-08-20T15:32:40.777Z,8.73
2018-08-20T15:35:12.391Z,8.68
2018-08-20T15:37:44.105Z,10.43
2018-08-20T15:40:14.561Z,8.50
2018-08-20T15:42:48.036Z,15.08
2018-08-20T15:45:18.311Z,10.98
2018-08-20T15:47:49.108Z,9.20
2018-08-20T15:50:24.739Z,7.90
2018-08-20T15:52:58.572Z,7.95
2018-08-20T15:55:27.867Z,7.60
2018-08-20T15:57:58.185Z,12.65
2018-08-20T16:00:35.962Z,10.07
2018-08-20T16:03:05.252Z,10.80
2018-08-20T16:05:37.338Z,13.90
2018-08-20T16:08:11.570Z,7.50
2018-08-20T16:10:46.844Z,10.13
2018-08-20T16:13:16.163Z,7.07
2018-08-20T16:15:48.511Z,10.47
2018-08-20T16:18:21.362Z,12.65
2018-08-20T16:20:52.466Z,10.40
2018-08-20T16:23:25.281Z,14.67
2018-08-20T16:25:55.465Z,9.60
2018-08-20T16:28:24.924Z,9.27
2018-08-20T16:30:56.287Z,9.75
2018-08-20T16:33:27.121Z,10.00
2018-08-20T16:35:59.477Z,9.90
2018-08-20T16:38:29.348Z,8.40
2018-08-20T16:41:00.854Z,10.13
2018-08-20T16:43:35.498Z,13.83
2018-08-20T16:46:06.307Z,10.03
2018-08-20T16:48:38.111Z,10.87
2018-08-20T16:51:09.286Z,9.03
2018-08-20T16:53:38.605Z,10.90
2018-08-20T16:56:07.684Z,9.67
2018-08-20T16:58:39.889Z,13.27
2018-08-20T17:01:19.280Z,12.40
2018-08-20T17:03:51.725Z,9.80
2018-08-20T17:06:21.255Z,9.33
2018-08-20T17:08:51.883Z,11.83
2018-08-20T17:11:21.486Z,9.63
2018-08-20T17:13:53.190Z,8.07
2018-08-20T17:16:24.466Z,11.50
2018-08-20T17:18:55.347Z,8.30
2018-08-20T17:21:26.234Z,12.87
2018-08-20T17:23:59.973Z,8.87
2018-08-20T17:26:30.993Z,7.73
2018-08-20T17:29:18.843Z,10.73
2018-08-20T17:31:49.693Z,7.47
2018-08-20T17:34:24.631Z,8.30
2018-08-20T17:36:55.109Z,10.43
2018-08-20T17:39:27.655Z,8.07
2018-08-20T17:41:59.408Z,11.13
2018-08-20T17:44:31.214Z,12.60
2018-08-20T17:47:01.909Z,10.87
2018-08-20T17:49:32.931Z,9.27
2018-08-20T17:52:05.132Z,8.83
2018-08-20T17:54:36.484Z,10.33
2018-08-20T17:57:07.010Z,12.80
2018-08-20T17:59:37.893Z,9.23
2018-08-20T18:02:14.436Z,15.57
2018-08-20T18:04:44.298Z,11.03
2018-08-20T18:07:31.986Z,11.20
2018-08-20T18:10:02.149Z,9.27
2018-08-20T18:12:32.971Z,9.07
2018-08-20T18:15:06.333Z,7.97
2018-08-20T18:17:36.146Z,11.60
2018-08-20T18:20:11.363Z,11.67
2018-08-20T18:22:42.734Z,10.60
2018-08-20T18:25:16.510Z,10.33
2018-08-20T18:27:46.492Z,8.77
2018-08-20T18:30:19.219Z,10.13
2018-08-20T18:32:49.529Z,8.83
2018-08-20T18:35:29.593Z,11.50
2018-08-20T18:37:59.048Z,9.30
2018-08-20T18:40:30.564Z,8.97
2018-08-20T18:43:05.614Z,10.23
2018-08-20T18:45:37.526Z,12.30
2018-08-20T18:48:08.121Z,11.03
2018-08-20T18:50:39.526Z,9.87
2018-08-20T18:53:10.753Z,11.13
2018-08-20T18:55:48.900Z,8.83
2018-08-20T18:58:20.283Z,13.03
2018-08-20T19:00:51.939Z,10.97
2018-08-20T19:03:25.385Z,8.93
2018-08-20T19:05:57.104Z,11.57
2018-08-20T19:08:32.818Z,9.90
2018-08-20T19:11:03.611Z,9.83
2018-08-20T19:13:35.451Z,10.23
2018-08-20T19:19:16.543Z,8.00
2018-08-20T19:21:45.987Z,9.37
2018-08-20T19:24:18.174Z,11.60
2018-08-20T19:26:49.895Z,10.53
2018-08-20T19:29:30.365Z,12.87
2018-08-20T19:32:02.953Z,11.70
2018-08-20T19:34:32.957Z,13.67
2018-08-20T19:37:04.336Z,10.33
2018-08-20T19:39:37.260Z,9.47
2018-08-20T19:42:08.325Z,13.53
2018-08-20T19:44:38.295Z,10.93
2018-08-20T19:47:08.718Z,9.53
2018-08-20T19:49:40.752Z,10.07
2018-08-20T19:52:11.147Z,10.57
2018-08-20T19:54:47.137Z,10.37
2018-08-20T19:57:19.479Z,8.53
2018-08-20T19:59:52.827Z,11.10
2018-08-20T20:02:27.761Z,10.57
2018-08-20T20:05:04.935Z,11.23
2018-08-20T20:07:39.051Z,10.60
2018-08-20T20:10:18.547Z,10.57
2018-08-20T20:12:56.144Z,11.47
2018-08-20T20:15:27.359Z,10.83
2018-08-20T20:17:59.828Z,9.70
2018-08-20T20:20:36.590Z,11.67
2018-08-20T20:23:12.309Z,12.43
2018-08-20T20:25:44.916Z,13.07
2018-08-20T20:28:17.387Z,11.50
2018-08-20T20:30:47.992Z,13.07
2018-08-20T20:33:25.659Z,12.70
2018-08-20T20:35:56.523Z,13.10
2018-08-20T20:38:27.344Z,9.80
2018-08-20T20:41:00.720Z,11.57
2018-08-20T20:43:42.184Z,8.83
2018-08-20T20:46:18.123Z,10.20
2018-08-20T20:48:49.127Z,10.97
2018-08-20T20:51:22.719Z,14.03
2018-08-20T20:53:54.306Z,10.57
2018-08-20T20:56:26.894Z,12.90
2018-08-20T20:58:58.565Z,12.40
2018-08-20T21:01:30.544Z,9.87
2018-08-20T21:04:08.580Z,8.77
2018-08-20T21:06:44.157Z,9.40
2018-08-20T21:09:17.671Z,13.53
2018-08-20T21:11:49.581Z,12.00
2018-08-20T21:14:21.492Z,11.23
2018-08-20T21:16:57.580Z,13.33
2018-08-20T21:19:29.632Z,10.03
2018-08-20T21:22:05.817Z,8.77
2018-08-20T21:24:36.321Z,11.73
2018-08-20T21:27:40.052Z,8.90
2018-08-20T21:30:12.448Z,12.43
2018-08-20T21:32:41.824Z,10.33
2018-08-20T21:35:19.543Z,9.20
2018-08-20T21:37:49.441Z,9.20
2018-08-20T21:40:23.570Z,9.73
2018-08-20T21:42:55.081Z,9.50
2018-08-20T21:45:25.550Z,10.50
2018-08-20T21:47:56.588Z,11.10
2018-08-20T21:50:28.316Z,10.87
2018-08-20T21:52:58.477Z,17.20
2018-08-20T21:55:29.590Z,12.13
2018-08-20T21:58:01.753Z,13.67
2018-08-20T22:00:33.770Z,11.17
2018-08-20T22:03:06.214Z,12.23
2018-08-20T22:05:37.469Z,12.40
2018-08-20T22:08:06.732Z,10.83
2018-08-20T22:10:38.485Z,8.80
2018-08-20T22:13:11.520Z,9.70
2018-08-20T22:15:46.779Z,13.27
2018-08-20T22:18:19.206Z,10.37
2018-08-20T22:20:48.905Z,12.13
2018-08-20T22:23:25.374Z,11.37
2018-08-20T22:25:55.546Z,12.27
2018-08-20T22:28:25.411Z,13.40
2018-08-20T22:30:57.744Z,9.43
2018-08-20T22:33:29.634Z,11.17
2018-08-20T22:36:01.817Z,11.87
2018-08-20T22:38:46.066Z,11.47
2018-08-20T22:41:16.918Z,10.43
2018-08-20T22:43:48.975Z,11.00
2018-08-20T22:46:18.883Z,15.40
2018-08-20T22:48:53.654Z,10.43
2018-08-20T22:51:23.986Z,9.23
2018-08-20T22:53:58.983Z,13.47
2018-08-20T22:56:31.212Z,10.47
2018-08-20T22:59:01.939Z,9.70
2018-08-20T23:01:32.720Z,10.87
2018-08-20T23:04:02.338Z,14.77
2018-08-20T23:06:32.074Z,11.00
2018-08-20T23:09:11.373Z,12.53
2018-08-20T23:11:42.572Z,9.83
2018-08-20T23:14:12.641Z,9.67
2018-08-20T23:16:41.854Z,13.47
2018-08-20T23:19:11.121Z,12.47
2018-08-20T23:21:44.108Z,13.73
2018-08-20T23:24:14.376Z,11.47
2018-08-20T23:26:45.217Z,10.07
2018-08-20T23:29:15.224Z,9.03
2018-08-20T23:31:45.016Z,9.77
2018-08-20T23:34:16.883Z,11.40
2018-08-20T23:36:46.132Z,14.20
2018-08-20T23:39:16.839Z,10.93
2018-08-20T23:41:45.859Z,13.80
2018-08-20T23:44:16.950Z,11.07
2018-08-20T23:46:50.582Z,12.40
2018-08-20T23:49:19.557Z,11.43
2018-08-20T23:51:49.322Z,13.00
2018-08-20T23:54:18.226Z,12.67
2018-08-20T23:56:47.183Z,12.37
2018-08-20T23:59:16.092Z,12.70
